Time;durP1;ratioP1;P1;durP2;ratioP2;P2;SDS_P1;SDS_P2;PMS_P1;PMS_P2;Temp;Humidity;BMP_temperature;BMP_pressure;BME280_temperature;BME280_humidity;BME280_pressure;Samples;Min_cycle;Max_cycle;Signal;HPM_P1;HPM_P2
2023/11/18 00:00:58;;;;;;;29.10;17.37;;;6.70;99.70;;;;;;5021404;28;20528;-80
2023/11/18 00:03:24;;;;;;;30.40;18.23;;;6.70;99.70;;;;;;5023163;28;20018;-80
2023/11/18 00:05:50;;;;;;;32.00;17.73;;;6.70;99.70;;;;;;5022765;28;20090;-79
2023/11/18 00:08:15;;;;;;;33.10;18.13;;;6.70;99.70;;;;;;5022144;28;20022;-79
2023/11/18 00:10:41;;;;;;;29.30;17.93;;;6.60;99.80;;;;;;5023047;28;20026;-80
2023/11/18 00:13:07;;;;;;;28.93;16.67;;;6.70;99.90;;;;;;5021122;28;20048;-80
2023/11/18 00:15:35;;;;;;;32.07;18.57;;;6.70;99.90;;;;;;5024503;28;20036;-80
2023/11/18 00:18:00;;;;;;;31.93;18.63;;;6.70;99.90;;;;;;5021147;28;20041;-79
2023/11/18 00:20:26;;;;;;;31.20;17.13;;;6.70;99.90;;;;;;5022730;28;20026;-80
2023/11/18 00:22:52;;;;;;;30.50;17.17;;;6.60;99.90;;;;;;5021751;28;20018;-80
2023/11/18 00:25:18;;;;;;;26.53;16.23;;;6.60;99.90;;;;;;5021430;28;20061;-81
2023/11/18 00:27:44;;;;;;;29.17;16.90;;;6.60;99.90;;;;;;5022787;28;20025;-80
2023/11/18 00:30:12;;;;;;;27.67;16.50;;;6.60;99.90;;;;;;5020846;28;20029;-81
2023/11/18 00:32:38;;;;;;;34.57;18.70;;;6.60;99.90;;;;;;5023017;28;20069;-81
2023/11/18 00:35:05;;;;;;;37.60;18.83;;;6.60;99.90;;;;;;5020778;28;20078;-80
2023/11/18 00:37:31;;;;;;;31.33;17.07;;;6.50;99.90;;;;;;5022913;28;20021;-81
2023/11/18 00:39:57;;;;;;;31.77;18.00;;;6.50;99.90;;;;;;5021465;28;20013;-80
2023/11/18 00:42:22;;;;;;;26.93;15.70;;;6.50;99.90;;;;;;5021672;28;20393;-80
2023/11/18 00:44:48;;;;;;;32.17;18.43;;;6.50;99.90;;;;;;5023969;28;20041;-81
2023/11/18 00:47:14;;;;;;;32.73;18.37;;;6.50;99.90;;;;;;5022146;28;20026;-80
2023/11/18 00:49:40;;;;;;;33.17;18.77;;;6.40;99.90;;;;;;5023062;28;20030;-80
2023/11/18 00:52:06;;;;;;;31.93;17.97;;;6.40;99.90;;;;;;5020536;28;20037;-80
2023/11/18 00:54:31;;;;;;;31.33;17.80;;;6.40;99.90;;;;;;5022738;28;20040;-80
2023/11/18 00:56:57;;;;;;;33.00;18.47;;;6.30;99.90;;;;;;5021374;28;20030;-80
2023/11/18 00:59:23;;;;;;;35.20;18.00;;;6.40;99.90;;;;;;5021468;28;20021;-79
2023/11/18 01:01:49;;;;;;;33.33;18.20;;;6.30;99.90;;;;;;5022335;28;20021;-80
2023/11/18 01:04:15;;;;;;;35.07;17.57;;;6.30;99.90;;;;;;5020478;28;20030;-81
2023/11/18 01:06:42;;;;;;;32.97;17.90;;;6.30;99.90;;;;;;5022402;28;20030;-81
2023/11/18 01:09:09;;;;;;;35.57;18.20;;;6.20;99.90;;;;;;5019967;28;20022;-81
2023/11/18 01:11:35;;;;;;;34.17;18.47;;;6.20;99.90;;;;;;5022066;28;20029;-81
2023/11/18 01:14:01;;;;;;;32.47;19.07;;;6.20;99.90;;;;;;5020742;28;20478;-81
2023/11/18 01:16:28;;;;;;;33.63;16.73;;;6.20;99.90;;;;;;5023157;28;20036;-81
2023/11/18 01:18:54;;;;;;;34.93;18.70;;;6.20;99.90;;;;;;5021817;28;20022;-81
2023/11/18 01:21:21;;;;;;;32.47;18.77;;;6.10;99.90;;;;;;5020026;28;20029;-81
2023/11/18 01:23:48;;;;;;;32.70;18.10;;;6.00;99.90;;;;;;5021586;28;20116;-81
2023/11/18 01:26:14;;;;;;;33.73;18.53;;;6.00;99.90;;;;;;5019764;28;20105;-81
2023/11/18 01:28:45;;;;;;;34.77;19.00;;;6.00;99.90;;;;;;5021426;28;20401;-81
2023/11/18 01:31:11;;;;;;;36.73;18.70;;;6.00;99.90;;;;;;5020567;28;20029;-81
2023/11/18 01:33:41;;;;;;;34.43;18.20;;;5.90;99.90;;;;;;5020904;28;20060;-81
2023/11/18 01:36:09;;;;;;;34.23;18.37;;;5.90;99.90;;;;;;5021857;28;20022;-81
2023/11/18 01:38:38;;;;;;;35.83;18.60;;;5.90;99.90;;;;;;5019700;28;20025;-81
2023/11/18 01:41:05;;;;;;;35.67;18.63;;;5.90;99.90;;;;;;5021687;28;20102;-80
2023/11/18 01:43:31;;;;;;;33.20;17.63;;;5.90;99.90;;;;;;5020817;28;20030;-81
2023/11/18 01:46:10;;;;;;;36.17;18.70;;;5.90;99.90;;;;;;5021789;28;20057;-81
2023/11/18 01:48:37;;;;;;;32.40;17.60;;;5.90;99.90;;;;;;5022646;28;20029;-81
2023/11/18 01:51:06;;;;;;;33.30;19.33;;;5.90;99.90;;;;;;5019922;28;20470;-81
2023/11/18 01:53:33;;;;;;;32.07;17.70;;;5.90;99.90;;;;;;5021751;28;20029;-80
2023/11/18 01:55:59;;;;;;;33.37;18.57;;;6.00;99.90;;;;;;5019326;28;20057;-80
2023/11/18 01:58:25;;;;;;;29.77;17.10;;;6.00;99.90;;;;;;5021730;28;20060;-81
2023/11/18 02:00:51;;;;;;;32.60;18.20;;;6.00;99.90;;;;;;5019587;28;20022;-81
2023/11/18 02:03:17;;;;;;;34.47;18.53;;;6.00;99.90;;;;;;5021153;28;20056;-80
2023/11/18 02:05:43;;;;;;;33.80;18.77;;;6.00;99.90;;;;;;5020614;28;20042;-80
2023/11/18 02:08:10;;;;;;;30.23;17.03;;;6.00;99.90;;;;;;5020076;28;20022;-80
2023/11/18 02:10:50;;;;;;;32.90;18.17;;;6.10;99.90;;;;;;5021126;28;20065;-80
2023/11/18 02:13:26;;;;;;;31.53;17.37;;;6.10;99.90;;;;;;5020884;28;20132;-80
2023/11/18 02:15:57;;;;;;;29.83;17.67;;;6.10;99.90;;;;;;5021392;28;20029;-79
2023/11/18 02:18:29;;;;;;;31.67;18.23;;;6.10;99.90;;;;;;5021614;28;20050;-80
2023/11/18 02:20:59;;;;;;;30.90;18.03;;;6.10;99.90;;;;;;5019913;28;20018;-80
2023/11/18 02:23:28;;;;;;;32.93;18.47;;;6.20;99.90;;;;;;5022794;28;20026;-80
2023/11/18 02:25:55;;;;;;;29.17;16.37;;;6.20;99.90;;;;;;5019171;28;20558;-80
2023/11/18 02:28:21;;;;;;;31.67;18.30;;;6.20;99.90;;;;;;5020662;28;20026;-80
2023/11/18 02:30:49;;;;;;;29.60;16.87;;;6.10;99.90;;;;;;5019338;28;20037;-81
2023/11/18 02:34:03;;;;;;;32.60;17.17;;;6.10;99.90;;;;;;5021113;28;20464;-80
2023/11/18 02:36:39;;;;;;;27.47;16.67;;;6.20;99.90;;;;;;4964691;28;20093;-80
2023/11/18 02:39:08;;;;;;;31.00;16.77;;;6.20;99.90;;;;;;5016246;28;20074;-81
2023/11/18 02:41:35;;;;;;;26.40;15.13;;;6.20;99.90;;;;;;5021114;28;20450;-81
2023/11/18 02:44:08;;;;;;;29.47;15.53;;;6.20;99.90;;;;;;5019863;28;20440;-80
2023/11/18 02:46:35;;;;;;;31.23;16.93;;;6.20;99.90;;;;;;5024035;28;20033;-79
2023/11/18 02:49:02;;;;;;;35.13;19.33;;;6.20;99.90;;;;;;5024455;28;20049;-81
2023/11/18 02:51:31;;;;;;;32.60;17.97;;;6.20;99.90;;;;;;5022719;28;20022;-80
2023/11/18 02:53:57;;;;;;;33.20;18.00;;;6.20;99.90;;;;;;5025898;28;20017;-81
2023/11/18 02:56:22;;;;;;;31.57;18.00;;;6.20;99.90;;;;;;5024056;28;20044;-81
2023/11/18 02:58:48;;;;;;;31.87;18.17;;;6.20;99.90;;;;;;5024824;28;20086;-80
2023/11/18 03:01:14;;;;;;;28.17;15.60;;;6.20;99.90;;;;;;5025229;28;20030;-81
2023/11/18 03:03:39;;;;;;;29.73;16.80;;;6.20;99.90;;;;;;5023577;28;20034;-80
2023/11/18 03:06:06;;;;;;;32.83;18.50;;;6.20;99.90;;;;;;5024242;28;20030;-80
2023/11/18 03:08:31;;;;;;;34.27;19.20;;;6.20;99.90;;;;;;5022788;28;20068;-81
2023/11/18 03:10:58;;;;;;;38.40;19.73;;;6.20;99.90;;;;;;5024498;28;20022;-81
2023/11/18 03:13:24;;;;;;;34.43;18.53;;;6.30;99.90;;;;;;5022416;28;20022;-80
2023/11/18 03:15:50;;;;;;;32.60;19.00;;;6.30;99.90;;;;;;5024296;28;20489;-80
2023/11/18 03:18:16;;;;;;;33.23;18.00;;;6.30;99.90;;;;;;5022643;28;20118;-79
2023/11/18 03:20:42;;;;;;;35.90;19.63;;;6.30;99.90;;;;;;5023965;28;20045;-79
2023/11/18 03:23:09;;;;;;;39.50;20.73;;;6.30;99.90;;;;;;5024209;28;20022;-79
2023/11/18 03:25:34;;;;;;;39.83;21.33;;;6.40;99.90;;;;;;5021919;28;20037;-80
2023/11/18 03:28:00;;;;;;;38.53;19.97;;;6.30;99.90;;;;;;5040320;28;20030;-79
2023/11/18 03:30:27;;;;;;;41.47;21.10;;;6.40;99.90;;;;;;5021857;28;20033;-80
2023/11/18 03:32:54;;;;;;;43.47;21.63;;;6.40;99.90;;;;;;5023855;28;20025;-80
2023/11/18 03:35:20;;;;;;;44.93;21.93;;;6.30;99.90;;;;;;5023731;28;20052;-80
2023/11/18 03:37:46;;;;;;;47.93;21.67;;;6.30;99.90;;;;;;5025160;28;20022;-80
2023/11/18 03:40:14;;;;;;;54.10;21.97;;;6.30;99.90;;;;;;5025257;28;20010;-78
2023/11/18 03:42:46;;;;;;;48.20;21.53;;;6.30;99.90;;;;;;5021888;28;20060;-80
2023/11/18 03:45:11;;;;;;;40.83;20.73;;;6.30;99.90;;;;;;5023806;28;20026;-80
2023/11/18 03:47:37;;;;;;;40.53;20.40;;;6.40;99.90;;;;;;5021466;28;20065;-80
2023/11/18 03:50:03;;;;;;;42.93;21.23;;;6.40;99.90;;;;;;5023799;28;20026;-79
2023/11/18 03:52:29;;;;;;;49.20;21.03;;;6.40;99.90;;;;;;5022167;28;20026;-79
2023/11/18 03:54:57;;;;;;;46.70;21.20;;;6.40;99.90;;;;;;5022921;28;20109;-79
2023/11/18 03:57:23;;;;;;;51.00;23.30;;;6.40;99.90;;;;;;5023240;28;20052;-79
2023/11/18 03:59:48;;;;;;;47.67;22.00;;;6.40;99.90;;;;;;5021844;28;20109;-79
2023/11/18 04:02:14;;;;;;;42.90;21.40;;;6.50;99.90;;;;;;5023126;28;20085;-80
2023/11/18 04:04:40;;;;;;;48.60;22.27;;;6.50;99.90;;;;;;5021380;28;20042;-80
2023/11/18 04:07:06;;;;;;;40.87;20.77;;;6.50;99.90;;;;;;5023428;28;20021;-80
2023/11/18 04:09:32;;;;;;;40.10;20.30;;;6.50;99.90;;;;;;5021530;28;20482;-80
2023/11/18 04:11:58;;;;;;;40.60;21.77;;;6.50;99.90;;;;;;5023006;28;20045;-80
2023/11/18 04:14:25;;;;;;;47.53;21.80;;;6.50;99.90;;;;;;5023050;28;20037;-81
2023/11/18 04:16:51;;;;;;;39.30;20.90;;;6.50;99.90;;;;;;5021407;28;20018;-80
2023/11/18 04:19:17;;;;;;;42.50;22.07;;;6.50;99.90;;;;;;5022998;28;20421;-80
2023/11/18 04:21:48;;;;;;;42.30;21.73;;;6.50;99.90;;;;;;5021647;28;20026;-80
2023/11/18 04:24:13;;;;;;;40.33;21.40;;;6.50;99.90;;;;;;5023391;28;20033;-80
2023/11/18 04:26:40;;;;;;;41.70;21.73;;;6.60;99.90;;;;;;5021410;28;21166;-80
2023/11/18 04:29:06;;;;;;;42.37;21.77;;;6.60;99.90;;;;;;5023709;28;20058;-80
2023/11/18 04:31:31;;;;;;;44.37;21.50;;;6.60;99.90;;;;;;5022221;28;20022;-80
2023/11/18 04:33:57;;;;;;;40.37;21.00;;;6.60;99.90;;;;;;5021222;28;20030;-80
2023/11/18 04:36:23;;;;;;;44.13;22.43;;;6.60;99.90;;;;;;5022956;28;20022;-80
2023/11/18 04:38:48;;;;;;;47.53;23.03;;;6.70;99.90;;;;;;5020974;28;20014;-80
2023/11/18 04:41:15;;;;;;;40.50;21.20;;;6.70;99.90;;;;;;5024345;28;20093;-81
2023/11/18 04:43:41;;;;;;;41.33;20.60;;;6.70;99.90;;;;;;5020530;28;20413;-80
2023/11/18 04:46:07;;;;;;;43.93;21.67;;;6.70;99.90;;;;;;5022206;28;20014;-80
2023/11/18 04:48:34;;;;;;;44.50;22.97;;;6.70;99.90;;;;;;5021984;28;20033;-81
2023/11/18 04:51:03;;;;;;;41.73;20.50;;;6.80;99.90;;;;;;5021586;28;20393;-81
2023/11/18 04:53:28;;;;;;;39.40;22.23;;;6.70;99.90;;;;;;5022604;28;20038;-81
2023/11/18 04:55:54;;;;;;;40.47;22.43;;;6.80;99.90;;;;;;5021883;28;20026;-81
2023/11/18 04:58:21;;;;;;;38.67;22.07;;;6.80;99.90;;;;;;5022148;28;20026;-81
2023/11/18 05:00:48;;;;;;;43.77;23.17;;;6.70;99.90;;;;;;5020471;28;20064;-80
2023/11/18 05:03:13;;;;;;;43.70;23.07;;;6.80;99.90;;;;;;5022457;28;20022;-81
2023/11/18 05:05:40;;;;;;;44.30;22.37;;;6.80;99.90;;;;;;5021594;28;20065;-81
2023/11/18 05:08:06;;;;;;;42.87;22.73;;;6.80;99.90;;;;;;5020648;28;20057;-81
2023/11/18 05:10:36;;;;;;;43.63;23.93;;;6.80;99.90;;;;;;5022183;28;20022;-81
2023/11/18 05:13:02;;;;;;;44.07;21.43;;;6.80;99.90;;;;;;5020069;28;20477;-80
2023/11/18 05:15:29;;;;;;;42.90;23.00;;;6.80;99.90;;;;;;5022259;28;20021;-81
2023/11/18 05:17:55;;;;;;;38.77;20.83;;;6.80;99.90;;;;;;5019946;28;20034;-81
2023/11/18 05:20:21;;;;;;;39.00;21.10;;;6.80;99.90;;;;;;5016854;28;20045;-81
2023/11/18 05:22:47;;;;;;;39.87;22.87;;;6.80;99.90;;;;;;5017709;28;20019;-81
2023/11/18 05:25:14;;;;;;;40.93;21.60;;;6.80;99.90;;;;;;5002830;28;20080;-82
2023/11/18 05:27:40;;;;;;;39.17;22.40;;;6.80;99.90;;;;;;5001821;28;20227;-81
2023/11/18 05:30:08;;;;;;;43.03;20.63;;;6.80;99.90;;;;;;5000061;28;20494;-81
2023/11/18 05:32:34;;;;;;;38.50;21.43;;;6.80;99.90;;;;;;5002273;28;20474;-81
2023/11/18 05:35:00;;;;;;;39.30;20.87;;;6.80;99.90;;;;;;5001557;28;20029;-81
2023/11/18 05:37:28;;;;;;;35.47;20.77;;;6.80;99.90;;;;;;5002172;28;20030;-81
2023/11/18 05:40:05;;;;;;;38.20;22.23;;;6.80;99.90;;;;;;5001531;28;20022;-80
2023/11/18 05:42:31;;;;;;;37.93;21.80;;;6.80;99.90;;;;;;5002029;28;20018;-81
2023/11/18 05:45:01;;;;;;;36.10;20.57;;;6.80;99.90;;;;;;5001974;28;20038;-80
2023/11/18 05:47:27;;;;;;;38.93;20.83;;;6.80;99.90;;;;;;5000010;28;20026;-81
2023/11/18 05:49:53;;;;;;;42.53;22.27;;;6.80;99.90;;;;;;5001925;28;20028;-81
2023/11/18 05:52:20;;;;;;;36.00;20.57;;;6.80;99.90;;;;;;5000257;28;20034;-81
2023/11/18 05:54:47;;;;;;;32.47;19.17;;;6.70;99.90;;;;;;5001567;28;20540;-81
2023/11/18 05:57:14;;;;;;;36.23;21.50;;;6.80;99.90;;;;;;5001229;28;20030;-80
2023/11/18 05:59:40;;;;;;;41.10;21.53;;;6.70;99.90;;;;;;5000491;28;20116;-81
2023/11/18 06:02:06;;;;;;;41.37;23.70;;;6.80;99.90;;;;;;5002051;28;20090;-81
2023/11/18 06:04:31;;;;;;;39.33;22.50;;;6.70;99.90;;;;;;4999510;28;20046;-81
2023/11/18 06:06:57;;;;;;;35.60;20.17;;;6.70;99.90;;;;;;5001754;28;20026;-81
2023/11/18 06:09:25;;;;;;;41.40;21.80;;;6.70;99.90;;;;;;5000101;28;20392;-80
2023/11/18 06:11:53;;;;;;;40.07;22.23;;;6.70;99.90;;;;;;5001545;28;20065;-80
2023/11/18 06:14:19;;;;;;;40.70;22.77;;;6.70;99.90;;;;;;5001410;28;20027;-80
2023/11/18 06:16:45;;;;;;;35.50;20.73;;;6.70;99.90;;;;;;5000220;28;20387;-80
2023/11/18 06:19:10;;;;;;;37.33;22.77;;;6.70;99.90;;;;;;5003493;28;20018;-80
2023/11/18 06:21:36;;;;;;;41.53;22.50;;;6.70;99.90;;;;;;5003715;28;20022;-80
2023/11/18 06:24:05;;;;;;;39.03;22.73;;;6.70;99.90;;;;;;5007109;28;20148;-81
2023/11/18 06:26:31;;;;;;;40.63;22.93;;;6.70;99.90;;;;;;5004955;28;20247;-81
2023/11/18 06:28:57;;;;;;;38.17;22.17;;;6.70;99.90;;;;;;5005095;28;20033;-81
2023/11/18 06:31:23;;;;;;;36.67;21.90;;;6.70;99.90;;;;;;5004939;28;20077;-80
2023/11/18 06:33:49;;;;;;;37.27;22.37;;;6.70;99.90;;;;;;5004393;28;20028;-80
2023/11/18 06:36:18;;;;;;;41.90;23.23;;;6.70;99.90;;;;;;5006785;28;20030;-80
2023/11/18 06:38:49;;;;;;;39.63;21.77;;;6.70;99.90;;;;;;5003352;28;20463;-80
2023/11/18 06:41:16;;;;;;;38.03;22.90;;;6.70;99.90;;;;;;5005359;28;20026;-82
2023/11/18 06:46:24;;;;;;;39.17;22.07;;;6.70;99.90;;;;;;5006221;28;20126;-81
2023/11/18 06:48:54;;;;;;;43.33;24.43;;;6.70;99.90;;;;;;5004992;28;20467;-81
2023/11/18 06:51:24;;;;;;;38.03;22.60;;;6.70;99.90;;;;;;5003212;28;20393;-81
2023/11/18 06:53:50;;;;;;;35.93;21.67;;;6.70;99.90;;;;;;5005132;28;20029;-81
2023/11/18 06:56:16;;;;;;;36.70;22.80;;;6.70;99.90;;;;;;5002951;28;20057;-81
2023/11/18 06:58:42;;;;;;;43.10;24.50;;;6.70;99.90;;;;;;5005180;28;20093;-81
2023/11/18 07:01:09;;;;;;;33.33;21.97;;;6.70;99.90;;;;;;5005255;28;20114;-81
2023/11/18 07:03:36;;;;;;;35.23;21.60;;;6.70;99.90;;;;;;5004285;28;20022;-80
2023/11/18 07:06:05;;;;;;;37.43;23.23;;;6.70;99.90;;;;;;5004681;28;20033;-80
2023/11/18 07:08:31;;;;;;;38.13;21.80;;;6.70;99.90;;;;;;5003240;28;20054;-83
2023/11/18 07:10:57;;;;;;;36.30;20.17;;;6.70;99.90;;;;;;5006152;28;20438;-82
2023/11/18 07:13:23;;;;;;;36.23;20.87;;;6.70;99.90;;;;;;5007067;28;20026;-82
2023/11/18 07:15:50;;;;;;;34.20;21.57;;;6.70;99.90;;;;;;5022753;28;20022;-82
2023/11/18 07:18:17;;;;;;;34.43;21.50;;;6.70;99.90;;;;;;5023684;28;20022;-82
2023/11/18 07:20:43;;;;;;;33.87;20.27;;;6.70;99.90;;;;;;5023343;28;20029;-82
2023/11/18 07:23:08;;;;;;;36.13;20.30;;;6.70;99.90;;;;;;5024144;28;20061;-82
2023/11/18 07:25:34;;;;;;;32.50;19.70;;;6.70;99.90;;;;;;5029719;28;20038;-82
2023/11/18 07:28:00;;;;;;;31.60;18.93;;;6.70;99.90;;;;;;5031941;28;20034;-82
2023/11/18 07:30:26;;;;;;;28.53;17.20;;;6.70;99.90;;;;;;5022018;28;20022;-82
2023/11/18 07:32:52;;;;;;;35.13;17.80;;;6.70;99.90;;;;;;5023740;28;20034;-82
2023/11/18 07:35:17;;;;;;;35.50;19.77;;;6.70;99.90;;;;;;5022157;28;20026;-82
2023/11/18 07:37:43;;;;;;;29.77;17.80;;;6.70;99.90;;;;;;5022779;28;20029;-82
2023/11/18 07:40:11;;;;;;;33.03;19.27;;;6.80;99.90;;;;;;5024527;28;20089;-82
2023/11/18 07:42:37;;;;;;;33.73;18.70;;;6.80;99.90;;;;;;5022145;28;20030;-83
2023/11/18 07:45:13;;;;;;;30.83;19.10;;;6.80;99.90;;;;;;5024110;28;20026;-82
2023/11/18 07:47:39;;;;;;;26.80;17.40;;;6.80;99.90;;;;;;5023285;28;20060;-83
2023/11/18 07:50:05;;;;;;;27.67;17.17;;;6.80;99.90;;;;;;5024223;28;20026;-83
2023/11/18 07:52:31;;;;;;;25.40;16.17;;;6.80;99.90;;;;;;5019191;28;20034;-81
2023/11/18 07:54:57;;;;;;;27.63;16.63;;;6.80;99.90;;;;;;5014990;28;20040;-81
2023/11/18 07:57:23;;;;;;;25.57;15.80;;;6.80;99.90;;;;;;5022239;28;20033;-81
2023/11/18 07:59:50;;;;;;;30.90;16.13;;;6.80;99.90;;;;;;5021653;28;20018;-81
2023/11/18 08:02:16;;;;;;;28.57;15.57;;;6.90;99.90;;;;;;5023684;28;20026;-82
2023/11/18 08:04:42;;;;;;;26.97;16.80;;;6.90;99.90;;;;;;5021122;28;20080;-81
2023/11/18 08:07:10;;;;;;;26.20;15.87;;;6.90;99.90;;;;;;5023425;28;20026;-80
2023/11/18 08:09:38;;;;;;;25.73;15.90;;;6.90;99.90;;;;;;5014353;28;20025;-80
2023/11/18 08:12:06;;;;;;;26.67;15.83;;;6.90;99.90;;;;;;5012399;28;20010;-81
2023/11/18 08:14:32;;;;;;;24.90;14.60;;;6.90;99.90;;;;;;5021142;28;20018;-81
2023/11/18 08:16:59;;;;;;;23.97;14.63;;;6.90;99.90;;;;;;5012045;28;20057;-80
2023/11/18 08:19:25;;;;;;;22.33;13.83;;;6.90;99.90;;;;;;5019207;28;20041;-81
2023/11/18 08:21:51;;;;;;;23.97;13.47;;;6.90;99.90;;;;;;5020736;28;20030;-82
2023/11/18 08:24:17;;;;;;;22.47;13.30;;;6.90;99.90;;;;;;5023122;28;20046;-81
2023/11/18 08:26:43;;;;;;;22.50;13.83;;;6.90;99.90;;;;;;5021216;28;20050;-80
2023/11/18 08:29:09;;;;;;;23.03;14.13;;;6.90;99.90;;;;;;5021970;28;20013;-80
2023/11/18 08:31:35;;;;;;;24.77;14.77;;;6.90;99.90;;;;;;5024014;28;20026;-80
2023/11/18 08:34:00;;;;;;;24.23;13.60;;;6.90;99.90;;;;;;5020694;28;20030;-80
2023/11/18 08:36:27;;;;;;;24.80;15.07;;;7.00;99.90;;;;;;5022957;28;20014;-79
2023/11/18 08:38:54;;;;;;;25.57;15.03;;;6.90;99.90;;;;;;5020343;28;20085;-80
2023/11/18 08:41:19;;;;;;;23.30;13.50;;;7.00;99.90;;;;;;5022373;28;20029;-79
2023/11/18 08:43:48;;;;;;;26.63;13.77;;;7.00;99.90;;;;;;5020322;28;20047;-79
2023/11/18 08:46:15;;;;;;;24.73;14.43;;;7.00;99.90;;;;;;5022440;28;20026;-79
2023/11/18 08:48:41;;;;;;;28.07;13.67;;;7.00;99.90;;;;;;5022501;28;20398;-79
2023/11/18 08:51:08;;;;;;;26.60;13.90;;;7.00;99.90;;;;;;5022330;28;20090;-79
2023/11/18 08:53:40;;;;;;;23.33;13.43;;;7.00;99.90;;;;;;5022426;28;20026;-80
2023/11/18 08:56:13;;;;;;;24.97;13.80;;;7.10;99.90;;;;;;5020521;28;20101;-80
2023/11/18 08:58:41;;;;;;;24.33;13.53;;;7.10;99.90;;;;;;5022513;28;20030;-80
2023/11/18 09:01:13;;;;;;;26.13;12.70;;;7.20;99.90;;;;;;5021372;28;20014;-81
2023/11/18 09:14:11;;;;;;;21.77;10.90;;;7.20;99.90;;;;;;5141052;27;20410;-79
2023/11/18 09:16:39;;;;;;;24.30;11.47;;;7.30;99.90;;;;;;5139125;28;20024;-79
2023/11/18 09:19:06;;;;;;;22.57;12.43;;;7.40;99.90;;;;;;5138078;28;20027;-80
2023/11/18 09:21:35;;;;;;;26.10;14.17;;;7.50;99.90;;;;;;5133517;22;20048;-79
2023/11/18 09:24:05;;;;;;;24.00;12.00;;;7.50;99.90;;;;;;5061590;28;20032;-80
2023/11/18 09:26:31;;;;;;;25.70;13.57;;;7.50;99.90;;;;;;5062407;28;20052;-80
2023/11/18 09:28:58;;;;;;;24.53;11.90;;;7.50;99.90;;;;;;5060330;28;20463;-80
2023/11/18 09:31:23;;;;;;;25.83;13.03;;;7.60;99.90;;;;;;5080324;28;20035;-80
2023/11/18 09:33:52;;;;;;;28.43;13.10;;;7.60;99.90;;;;;;5060790;28;20021;-79
2023/11/18 09:36:19;;;;;;;27.87;12.33;;;7.60;99.90;;;;;;5080166;28;20037;-80
2023/11/18 09:38:46;;;;;;;25.97;12.57;;;7.70;99.90;;;;;;5061821;28;20021;-79
2023/11/18 09:41:12;;;;;;;27.07;12.07;;;7.70;99.90;;;;;;5061403;28;20021;-80
2023/11/18 09:43:46;;;;;;;23.80;12.33;;;7.70;99.90;;;;;;5080040;28;20066;-80
2023/11/18 09:46:23;;;;;;;23.70;11.18;;;7.70;99.90;;;;;;5060468;28;20119;-80
2023/11/18 09:49:25;;;;;;;24.73;12.63;;;7.70;99.90;;;;;;5062257;28;20046;-80
2023/11/18 09:51:57;;;;;;;21.83;11.53;;;7.80;99.90;;;;;;5058110;28;20040;-79
2023/11/18 09:54:41;;;;;;;24.20;10.83;;;7.80;99.90;;;;;;5078156;28;20020;-80
2023/11/18 09:57:16;;;;;;;23.30;11.48;;;7.80;99.90;;;;;;5062474;28;20095;-79
2023/11/18 09:59:59;;;;;;;21.57;10.67;;;7.80;99.90;;;;;;5060326;28;20029;-79
2023/11/18 10:02:28;;;;;;;24.90;11.60;;;7.80;99.90;;;;;;5060999;28;20036;-79
2023/11/18 10:04:58;;;;;;;23.83;11.90;;;7.80;99.90;;;;;;5064527;28;20021;-79
2023/11/18 10:07:32;;;;;;;24.40;10.70;;;7.80;99.90;;;;;;5060829;28;20048;-79
2023/11/18 10:09:58;;;;;;;25.15;10.77;;;7.80;99.90;;;;;;5061138;28;20088;-80
2023/11/18 10:12:26;;;;;;;27.33;11.30;;;7.80;99.90;;;;;;5059482;28;20047;-80
2023/11/18 10:14:52;;;;;;;23.03;10.40;;;7.80;99.90;;;;;;5048788;28;20043;-80
2023/11/18 10:17:21;;;;;;;23.30;11.27;;;7.80;99.90;;;;;;5046663;28;20021;-79
2023/11/18 10:19:59;;;;;;;22.17;10.17;;;7.80;99.90;;;;;;5051642;28;20016;-80
2023/11/18 10:22:26;;;;;;;21.37;10.97;;;7.80;99.90;;;;;;5081242;28;20110;-80
2023/11/18 10:24:54;;;;;;;21.83;10.13;;;7.80;99.90;;;;;;5058625;28;20035;-80
2023/11/18 10:27:29;;;;;;;19.90;9.17;;;7.70;99.90;;;;;;5051249;28;20040;-80
2023/11/18 10:30:02;;;;;;;20.57;10.03;;;7.80;99.90;;;;;;5056440;28;20035;-80
2023/11/18 10:32:28;;;;;;;21.40;7.93;;;7.80;99.90;;;;;;5066954;28;20036;-80
2023/11/18 10:34:58;;;;;;;17.67;7.73;;;7.90;99.90;;;;;;5060117;28;20059;-80
2023/11/18 10:37:25;;;;;;;20.63;8.97;;;7.90;99.90;;;;;;5067776;28;20017;-80
2023/11/18 10:39:51;;;;;;;15.40;6.63;;;7.90;99.90;;;;;;5057182;28;20363;-80
2023/11/18 10:42:18;;;;;;;15.57;7.67;;;8.00;99.90;;;;;;5065627;28;20116;-80
2023/11/18 10:45:03;;;;;;;17.17;7.97;;;8.00;99.90;;;;;;5028009;28;20026;-80
2023/11/18 10:47:32;;;;;;;16.67;7.07;;;8.00;99.90;;;;;;5066474;28;20024;-80
2023/11/18 10:49:58;;;;;;;15.93;6.87;;;8.10;99.90;;;;;;5046625;28;20025;-80
2023/11/18 10:52:34;;;;;;;16.33;6.90;;;8.10;99.90;;;;;;5059558;28;20095;-80
2023/11/18 10:55:07;;;;;;;17.43;7.23;;;8.10;99.90;;;;;;5056396;28;20021;-80
2023/11/18 10:57:35;;;;;;;16.33;7.27;;;8.10;99.90;;;;;;5057471;28;20044;-80
2023/11/18 11:00:12;;;;;;;18.27;7.97;;;8.10;99.90;;;;;;5046832;28;20039;-80
2023/11/18 11:02:41;;;;;;;20.10;8.77;;;8.10;99.90;;;;;;5071953;28;20124;-80
2023/11/18 11:05:07;;;;;;;17.07;7.57;;;8.10;99.90;;;;;;5054836;28;20022;-80
2023/11/18 11:07:33;;;;;;;14.80;7.03;;;8.10;99.90;;;;;;5033572;28;20097;-81
2023/11/18 11:10:04;;;;;;;19.43;6.70;;;8.10;99.90;;;;;;5062089;28;20029;-80
2023/11/18 11:12:34;;;;;;;13.17;6.33;;;8.10;99.90;;;;;;5054735;28;20012;-80
2023/11/18 11:15:07;;;;;;;18.03;7.47;;;8.10;99.90;;;;;;5056416;28;20055;-80
2023/11/18 11:17:37;;;;;;;15.80;7.00;;;8.10;99.90;;;;;;5070496;28;20044;-80
2023/11/18 11:20:32;;;;;;;17.13;6.73;;;8.10;99.90;;;;;;5034738;28;20148;-80
2023/11/18 11:23:08;;;;;;;16.60;6.60;;;8.10;99.90;;;;;;5069027;28;20045;-80
2023/11/18 11:26:05;;;;;;;16.13;6.87;;;8.10;99.90;;;;;;5050157;28;20029;-80
2023/11/18 11:28:53;;;;;;;14.53;6.77;;;8.10;99.90;;;;;;5045337;28;20085;-80
2023/11/18 11:31:32;;;;;;;15.37;6.73;;;8.10;99.90;;;;;;5046371;28;20032;-81
2023/11/18 11:34:14;;;;;;;17.27;7.40;;;8.10;99.90;;;;;;5045463;28;20021;-79
2023/11/18 11:36:50;;;;;;;23.00;7.40;;;8.10;99.90;;;;;;5026434;28;20052;-80
2023/11/18 11:39:29;;;;;;;15.63;7.60;;;8.10;99.90;;;;;;5029499;28;20029;-80
2023/11/18 11:41:56;;;;;;;21.23;7.43;;;8.10;99.90;;;;;;5048543;28;20035;-81
2023/11/18 11:44:29;;;;;;;22.23;9.10;;;8.10;99.90;;;;;;5052134;28;20036;-80
2023/11/18 11:46:56;;;;;;;17.23;7.67;;;8.10;99.90;;;;;;5063059;28;20017;-80
2023/11/18 11:49:27;;;;;;;14.27;7.20;;;8.10;99.90;;;;;;5045947;28;20084;-80
2023/11/18 11:52:15;;;;;;;16.00;7.77;;;8.10;99.90;;;;;;5046358;28;20044;-80
2023/11/18 11:55:36;;;;;;;17.37;8.60;;;8.10;99.90;;;;;;5046903;28;20040;-80
2023/11/18 11:58:02;;;;;;;18.70;8.87;;;8.00;99.90;;;;;;4980042;28;20035;-81
2023/11/18 12:00:34;;;;;;;14.37;7.77;;;8.10;99.90;;;;;;5050605;28;20067;-80
2023/11/18 12:03:04;;;;;;;16.10;8.97;;;8.10;99.90;;;;;;5044505;28;20040;-81
2023/11/18 12:05:33;;;;;;;15.83;8.33;;;8.10;99.90;;;;;;5045732;28;20033;-80
2023/11/18 12:07:59;;;;;;;21.07;7.17;;;8.10;99.90;;;;;;5044179;28;20017;-81
2023/11/18 12:10:30;;;;;;;13.70;7.30;;;8.10;99.90;;;;;;5046195;28;20063;-80
2023/11/18 12:13:19;;;;;;;17.57;7.43;;;8.10;99.90;;;;;;5045179;28;20045;-80
2023/11/18 12:16:04;;;;;;;16.57;7.40;;;8.10;99.90;;;;;;5043905;28;20021;-80
2023/11/18 12:18:31;;;;;;;17.80;8.37;;;8.20;99.90;;;;;;5045934;28;20053;-79
2023/11/18 12:21:02;;;;;;;16.13;7.50;;;8.20;99.90;;;;;;5043979;28;20028;-79
2023/11/18 12:23:28;;;;;;;16.13;6.60;;;8.20;99.90;;;;;;5063393;28;20525;-80
2023/11/18 12:25:58;;;;;;;13.50;6.67;;;8.20;99.90;;;;;;5044990;28;20025;-79
2023/11/18 12:28:27;;;;;;;14.47;7.30;;;8.30;99.90;;;;;;5043996;28;20113;-80
2023/11/18 12:30:57;;;;;;;16.83;7.40;;;8.30;99.90;;;;;;5045317;28;20036;-80
2023/11/18 12:33:51;;;;;;;13.60;6.40;;;8.30;99.90;;;;;;5043737;28;20048;-80
2023/11/18 12:36:39;;;;;;;12.47;6.47;;;8.30;99.90;;;;;;5045421;28;20036;-80
2023/11/18 12:39:17;;;;;;;11.90;5.97;;;8.40;99.90;;;;;;5045502;28;20060;-80
2023/11/18 12:41:47;;;;;;;12.67;7.13;;;8.40;99.90;;;;;;5043607;28;20120;-80
2023/11/18 12:44:22;;;;;;;16.73;7.00;;;8.40;99.90;;;;;;5045578;28;20083;-80
2023/11/18 12:47:09;;;;;;;11.37;5.37;;;8.40;99.90;;;;;;5044063;28;20036;-80
2023/11/18 12:49:40;;;;;;;13.97;6.30;;;8.40;99.90;;;;;;5057868;28;20027;-80
2023/11/18 12:52:08;;;;;;;15.47;5.83;;;8.50;99.90;;;;;;5045862;28;20111;-80
2023/11/18 12:54:38;;;;;;;13.23;6.10;;;8.40;99.90;;;;;;5043411;28;20025;-80
2023/11/18 12:57:06;;;;;;;14.00;5.90;;;8.50;99.90;;;;;;5063435;28;20482;-80
2023/11/18 12:59:38;;;;;;;14.20;5.63;;;8.50;99.90;;;;;;5043279;28;20059;-81